Time;durP1;ratioP1;P1;durP2;ratioP2;P2;SDS_P1;SDS_P2;PMS_P1;PMS_P2;Temp;Humidity;BMP_temperature;BMP_pressure;BME280_temperature;BME280_humidity;BME280_pressure;Samples;Min_cycle;Max_cycle;Signal;HPM_P1;HPM_P2
2023/08/01 00:01:48;;;;;;;3.22;2.17;;;;;;;21.72;56.83;94913.72;4983111;28;20463;-78
2023/08/01 00:04:13;;;;;;;5.07;2.50;;;;;;;21.56;56.89;94892.91;4951034;28;20432;-77
2023/08/01 00:06:39;;;;;;;7.65;2.35;;;;;;;21.76;56.98;94928.06;4983258;28;20100;-77
2023/08/01 00:09:04;;;;;;;3.83;2.25;;;;;;;21.73;57.29;94943.06;4983266;28;20160;-77
2023/08/01 00:11:30;;;;;;;5.63;2.17;;;;;;;21.86;56.46;94932.94;4952367;28;20035;-78
2023/08/01 00:13:55;;;;;;;4.18;1.80;;;;;;;21.68;56.92;94929.81;4983376;28;20089;-78
2023/08/01 00:16:21;;;;;;;4.25;2.22;;;;;;;21.10;57.16;94842.44;4983415;28;20043;-77
2023/08/01 00:18:46;;;;;;;6.78;2.50;;;;;;;21.51;57.00;94895.09;4968549;28;20486;-78
2023/08/01 00:21:12;;;;;;;4.60;2.38;;;;;;;21.69;56.85;94920.59;4982967;28;20050;-78
2023/08/01 00:23:38;;;;;;;3.95;2.15;;;;;;;21.69;56.71;94911.69;4971787;28;20051;-77
2023/08/01 00:26:03;;;;;;;7.03;2.30;;;;;;;21.75;57.05;94923.78;4965563;28;20034;-77
2023/08/01 00:28:32;;;;;;;3.63;2.40;;;;;;;21.41;56.93;94872.13;4962921;28;20039;-77
2023/08/01 00:31:10;;;;;;;5.50;2.10;;;;;;;21.90;56.70;94931.09;4966616;28;20035;-78
2023/08/01 00:33:37;;;;;;;3.30;2.17;;;;;;;21.74;56.27;94903.34;4985807;28;20076;-77
2023/08/01 00:36:02;;;;;;;4.07;2.20;;;;;;;21.72;56.47;94898.31;4970796;28;20466;-77
2023/08/01 00:38:28;;;;;;;2.70;2.10;;;;;;;21.81;55.85;94890.81;4971411;28;20023;-77
2023/08/01 00:40:54;;;;;;;3.85;2.47;;;;;;;22.07;55.81;94928.03;4978696;28;20413;-77
2023/08/01 00:43:20;;;;;;;5.10;1.80;;;;;;;21.96;56.07;94937.81;4959881;28;20050;-77
2023/08/01 00:45:46;;;;;;;8.18;2.10;;;;;;;21.68;56.02;94886.63;4953519;28;20074;-77
2023/08/01 00:48:12;;;;;;;5.20;1.80;;;;;;;21.61;55.91;94869.50;4971071;28;20117;-77
2023/08/01 00:50:39;;;;;;;6.43;2.45;;;;;;;21.98;55.49;94910.47;4971125;28;20130;-77
2023/08/01 00:53:05;;;;;;;4.53;2.13;;;;;;;21.97;55.34;94895.41;4957357;28;20142;-77
2023/08/01 00:55:32;;;;;;;3.25;2.10;;;;;;;22.06;55.67;94917.59;4955044;28;20039;-80
2023/08/01 00:57:58;;;;;;;3.35;2.22;;;;;;;21.85;55.51;94885.47;4976601;28;20100;-80
2023/08/01 01:00:23;;;;;;;4.93;2.45;;;;;;;22.12;55.35;94897.28;4979328;28;20038;-80
2023/08/01 01:02:49;;;;;;;4.97;2.22;;;;;;;22.03;55.39;94884.00;5042067;28;20031;-80
2023/08/01 01:05:15;;;;;;;3.10;1.95;;;;;;;22.14;55.22;94895.78;4964503;28;20045;-80
2023/08/01 01:07:41;;;;;;;3.47;1.83;;;;;;;22.08;55.14;94894.50;4962705;28;20035;-80
2023/08/01 01:10:07;;;;;;;5.80;2.10;;;;;;;22.22;55.31;94907.53;4981287;28;20082;-80
2023/08/01 01:12:32;;;;;;;2.42;2.10;;;;;;;22.08;55.15;94893.72;4963451;28;20050;-80
2023/08/01 01:14:58;;;;;;;7.93;2.00;;;;;;;21.89;55.47;94910.66;4977969;28;20039;-80
2023/08/01 01:17:23;;;;;;;2.72;2.30;;;;;;;21.65;55.88;94894.66;5017150;28;20023;-80
2023/08/01 01:19:48;;;;;;;4.80;2.30;;;;;;;21.55;55.90;94877.06;4963163;28;20072;-79
2023/08/01 01:22:16;;;;;;;3.25;2.05;;;;;;;21.70;56.24;94897.06;4962540;28;20027;-80
2023/08/01 01:24:42;;;;;;;3.92;2.42;;;;;;;21.61;56.08;94882.97;4962761;28;20519;-80
2023/08/01 01:27:08;;;;;;;5.38;2.42;;;;;;;21.73;56.08;94907.97;4962645;28;20023;-80
2023/08/01 01:29:34;;;;;;;4.20;2.53;;;;;;;21.47;55.89;94878.03;4994484;28;20039;-80
2023/08/01 01:32:01;;;;;;;3.20;2.38;;;;;;;21.70;55.82;94899.78;4977657;28;20150;-79
2023/08/01 01:34:28;;;;;;;3.88;2.00;;;;;;;21.76;55.66;94904.56;4986455;28;20197;-80
2023/08/01 01:36:54;;;;;;;3.45;2.33;;;;;;;21.50;55.22;94858.47;4960300;28;20157;-80
2023/08/01 01:39:20;;;;;;;7.65;2.80;;;;;;;21.38;55.58;94861.25;4978961;28;20077;-80
2023/08/01 01:41:45;;;;;;;3.85;2.10;;;;;;;21.60;55.24;94886.81;4959810;28;20092;-80
2023/08/01 01:44:11;;;;;;;4.68;2.13;;;;;;;21.67;55.00;94903.94;4977810;28;20058;-79
2023/08/01 01:46:36;;;;;;;6.43;2.75;;;;;;;21.61;55.44;94899.16;4993315;28;20034;-79
2023/08/01 01:49:02;;;;;;;3.03;2.38;;;;;;;21.20;55.15;94825.78;4977371;28;20034;-79
2023/08/01 01:51:28;;;;;;;4.97;2.22;;;;;;;21.60;54.91;94862.53;4949482;28;20034;-80
2023/08/01 01:53:53;;;;;;;7.78;3.63;;;;;;;21.63;56.67;94867.22;4963163;28;20026;-80
2023/08/01 01:56:19;;;;;;;5.38;3.17;;;;;;;21.81;56.73;94901.59;4963623;28;20023;-80
2023/08/01 01:58:44;;;;;;;11.93;3.30;;;;;;;21.88;56.86;94903.69;4994804;28;20033;-79
2023/08/01 02:01:10;;;;;;;5.20;3.75;;;;;;;21.96;56.72;94905.41;4993681;28;20515;-80
2023/08/01 02:03:36;;;;;;;7.05;3.47;;;;;;;21.96;56.61;94891.91;4985889;28;20037;-80
2023/08/01 02:06:03;;;;;;;5.70;3.42;;;;;;;21.92;56.65;94893.72;4973643;28;20116;-80
2023/08/01 02:08:29;;;;;;;7.32;3.95;;;;;;;21.86;57.41;94909.41;4994946;28;20035;-79
2023/08/01 02:10:57;;;;;;;6.45;4.20;;;;;;;21.90;57.12;94890.59;4981234;28;20129;-80
2023/08/01 02:13:27;;;;;;;4.88;3.78;;;;;;;21.86;57.25;94892.44;4995220;28;20126;-80
2023/08/01 02:15:52;;;;;;;7.82;3.60;;;;;;;21.83;57.00;94887.72;4960400;28;20039;-80
2023/08/01 02:18:18;;;;;;;7.88;4.05;;;;;;;21.84;57.25;94897.41;4956111;28;20037;-80
2023/08/01 02:20:43;;;;;;;6.82;4.03;;;;;;;21.63;57.69;94875.31;4993304;28;20114;-80
2023/08/01 02:23:09;;;;;;;6.25;3.58;;;;;;;21.64;56.99;94869.59;4991718;28;20137;-80
2023/08/01 02:25:41;;;;;;;9.27;3.78;;;;;;;21.80;57.68;94912.75;4991694;28;20045;-80
2023/08/01 02:28:07;;;;;;;6.18;3.13;;;;;;;21.24;57.51;94815.06;4967347;28;20410;-80
2023/08/01 02:30:34;;;;;;;6.15;3.42;;;;;;;21.65;57.97;94897.34;4960430;28;20034;-80
2023/08/01 02:32:59;;;;;;;15.95;4.40;;;;;;;21.66;57.86;94893.53;4977946;28;20030;-80
2023/08/01 02:35:24;;;;;;;10.65;3.92;;;;;;;21.62;57.77;94887.25;4955953;28;20092;-80
2023/08/01 02:37:50;;;;;;;11.10;3.50;;;;;;;21.43;57.56;94853.69;4977983;28;20066;-80
2023/08/01 02:40:15;;;;;;;11.43;3.58;;;;;;;21.34;57.07;94830.72;4978452;28;20045;-79
2023/08/01 02:42:41;;;;;;;6.90;3.40;;;;;;;21.77;57.36;94899.94;4978310;28;20600;-79
2023/08/01 02:45:07;;;;;;;6.78;2.72;;;;;;;21.65;56.90;94873.06;4959663;28;20058;-79
2023/08/01 02:47:32;;;;;;;8.57;3.13;;;;;;;21.62;56.70;94865.66;4961770;28;20037;-80
2023/08/01 02:49:57;;;;;;;7.90;3.50;;;;;;;21.77;57.21;94897.25;4993201;28;20525;-80
2023/08/01 02:52:23;;;;;;;8.85;3.00;;;;;;;21.52;57.70;94873.16;4992299;28;20550;-80
2023/08/01 02:54:48;;;;;;;8.07;3.33;;;;;;;21.29;58.09;94856.03;5044755;28;20030;-79
2023/08/01 02:57:14;;;;;;;5.15;2.78;;;;;;;21.03;57.71;94802.63;4961364;28;20084;-79
2023/08/01 02:59:39;;;;;;;6.53;3.13;;;;;;;21.47;57.88;94878.81;4960074;28;20027;-79
2023/08/01 03:02:05;;;;;;;7.00;3.00;;;;;;;21.47;58.41;94911.19;4960131;28;20053;-79
2023/08/01 03:04:31;;;;;;;8.73;2.70;;;;;;;21.32;58.53;94889.63;4970282;28;20038;-79
2023/08/01 03:06:56;;;;;;;9.77;4.00;;;;;;;21.36;58.28;94877.78;4966927;28;20030;-80
2023/08/01 03:09:21;;;;;;;8.88;4.28;;;;;;;21.11;59.06;94857.50;4977532;28;20035;-80
2023/08/01 03:11:47;;;;;;;6.50;4.20;;;;;;;21.36;58.99;94901.28;4976483;28;20035;-79
2023/08/01 03:14:13;;;;;;;4.57;3.95;;;;;;;21.42;59.13;94903.38;4976980;28;20041;-79
2023/08/01 03:16:38;;;;;;;6.97;4.20;;;;;;;21.22;59.15;94868.56;4960944;28;20023;-79
2023/08/01 03:19:06;;;;;;;9.93;5.13;;;;;;;21.29;59.37;94880.28;4976070;28;20042;-79
2023/08/01 03:21:32;;;;;;;11.75;5.70;;;;;;;21.19;59.50;94872.75;4974053;28;20096;-80
2023/08/01 03:23:59;;;;;;;9.93;5.57;;;;;;;21.30;59.53;94906.13;4956565;28;20102;-80
2023/08/01 03:26:25;;;;;;;10.07;5.30;;;;;;;21.31;59.14;94894.22;4960109;28;20039;-80
2023/08/01 03:28:51;;;;;;;9.82;4.20;;;;;;;21.40;58.89;94911.03;4993376;28;20037;-80
2023/08/01 03:31:16;;;;;;;10.20;5.03;;;;;;;20.86;59.52;94869.53;4962189;28;20030;-79
2023/08/01 03:33:41;;;;;;;11.63;4.03;;;;;;;21.28;58.68;94916.50;4979861;28;20054;-79
2023/08/01 03:36:07;;;;;;;10.68;4.20;;;;;;;21.06;58.48;94908.94;4995077;28;20045;-80
2023/08/01 03:38:32;;;;;;;8.45;4.40;;;;;;;20.98;58.04;94904.53;4998019;28;20070;-80
2023/08/01 03:40:58;;;;;;;8.13;4.55;;;;;;;20.71;58.15;94874.56;4976854;28;20047;-79
2023/08/01 03:43:23;;;;;;;8.45;4.55;;;;;;;20.73;58.52;94914.66;4958854;28;20035;-80
2023/08/01 03:45:52;;;;;;;10.73;4.28;;;;;;;20.75;58.44;94923.19;4959816;28;20034;-80
2023/08/01 03:48:17;;;;;;;5.40;4.78;;;;;;;20.43;58.79;94887.25;4960689;28;20042;-80
2023/08/01 03:50:43;;;;;;;12.30;5.03;;;;;;;20.29;59.33;94892.22;5001220;28;20519;-80
2023/08/01 03:53:08;;;;;;;8.50;5.03;;;;;;;20.50;59.53;94930.56;5005890;28;20059;-80
2023/08/01 03:55:34;;;;;;;13.27;5.00;;;;;;;20.45;59.23;94908.44;4954161;28;20588;-80
2023/08/01 03:57:59;;;;;;;10.25;5.22;;;;;;;20.51;59.02;94915.97;4991919;28;20083;-79
2023/08/01 04:00:24;;;;;;;13.48;4.72;;;;;;;20.60;59.07;94923.88;4959286;28;20145;-79
2023/08/01 04:02:50;;;;;;;12.00;4.97;;;;;;;20.47;59.07;94904.28;4985853;28;20102;-79
2023/08/01 04:05:16;;;;;;;7.53;4.82;;;;;;;20.36;59.20;94911.31;4963451;28;20479;-79
2023/08/01 04:07:42;;;;;;;10.10;4.53;;;;;;;20.24;59.33;94895.13;4977764;28;20031;-80
2023/08/01 04:10:07;;;;;;;7.80;3.95;;;;;;;20.32;59.54;94919.25;4976378;28;20139;-79
2023/08/01 04:12:34;;;;;;;7.85;4.25;;;;;;;20.45;59.38;94921.91;4961468;28;20516;-79
2023/08/01 04:15:00;;;;;;;7.95;4.38;;;;;;;20.26;59.99;94927.91;4979103;28;20463;-79
2023/08/01 04:17:26;;;;;;;8.82;4.95;;;;;;;19.98;60.21;94882.88;4949133;28;20031;-80
2023/08/01 04:19:52;;;;;;;7.70;4.78;;;;;;;20.38;59.76;94931.38;4961947;28;20034;-80
2023/08/01 04:22:24;;;;;;;7.50;4.13;;;;;;;20.50;59.53;94940.56;4994610;28;20038;-79
2023/08/01 04:24:50;;;;;;;6.05;4.57;;;;;;;20.23;59.69;94917.78;4978086;28;20027;-79
2023/08/01 04:27:16;;;;;;;9.85;4.10;;;;;;;20.29;59.36;94913.75;4972173;28;20042;-78
2023/08/01 04:29:41;;;;;;;13.43;4.45;;;;;;;20.36;59.71;94932.84;4971536;28;20041;-78
2023/08/01 04:32:07;;;;;;;10.85;4.38;;;;;;;20.21;59.72;94918.16;4984910;28;20031;-78
2023/08/01 04:34:33;;;;;;;5.55;3.72;;;;;;;20.07;59.54;94906.16;4972154;28;20031;-78
2023/08/01 04:36:58;;;;;;;9.55;4.68;;;;;;;20.28;59.64;94945.28;4986229;28;20057;-78
2023/08/01 04:39:24;;;;;;;7.75;4.47;;;;;;;20.22;59.63;94916.22;4975574;28;20046;-78
2023/08/01 04:41:49;;;;;;;13.25;4.28;;;;;;;20.19;60.06;94919.63;4954769;28;20031;-77
2023/08/01 04:44:15;;;;;;;7.72;4.53;;;;;;;20.01;60.06;94919.88;4954392;28;20027;-78
2023/08/01 04:46:41;;;;;;;6.47;3.90;;;;;;;20.23;60.11;94931.25;5003855;28;20080;-78
2023/08/01 04:49:07;;;;;;;10.00;4.10;;;;;;;20.20;59.63;94892.34;4970281;28;20030;-77
2023/08/01 04:51:32;;;;;;;12.82;5.18;;;;;;;20.47;59.26;94925.84;4952915;28;20099;-78
2023/08/01 04:53:58;;;;;;;6.70;4.63;;;;;;;20.52;58.53;94917.50;4984421;28;20035;-78
2023/08/01 04:56:23;;;;;;;6.10;4.47;;;;;;;20.56;58.01;94912.25;4984743;28;20059;-78
2023/08/01 04:58:49;;;;;;;9.05;4.22;;;;;;;20.64;58.22;94933.66;4954200;28;20029;-77
2023/08/01 05:01:14;;;;;;;7.43;3.88;;;;;;;20.59;57.96;94915.03;4971690;28;20088;-77
2023/08/01 05:03:40;;;;;;;11.40;4.45;;;;;;;20.54;57.83;94899.09;4953741;28;20031;-78
2023/08/01 05:06:05;;;;;;;11.13;4.72;;;;;;;20.65;57.79;94912.88;5000244;28;20032;-78
2023/08/01 05:08:31;;;;;;;7.93;4.25;;;;;;;20.77;57.50;94935.16;5005341;28;20434;-77
2023/08/01 05:10:56;;;;;;;7.68;4.15;;;;;;;20.63;57.22;94898.97;4970975;28;20035;-77
2023/08/01 05:13:22;;;;;;;9.38;4.00;;;;;;;20.71;56.91;94920.38;4984730;28;20032;-77
2023/08/01 05:15:47;;;;;;;5.93;4.20;;;;;;;20.64;56.75;94892.44;4965661;28;20415;-78
2023/08/01 05:18:14;;;;;;;11.20;5.25;;;;;;;20.74;57.39;94927.00;4998786;28;20035;-78
2023/08/01 05:20:39;;;;;;;8.63;4.53;;;;;;;20.78;57.24;94936.72;4978053;28;20031;-78
2023/08/01 05:23:05;;;;;;;14.50;4.63;;;;;;;20.72;56.58;94919.25;5015687;28;20022;-78
2023/08/01 05:25:30;;;;;;;10.25;4.50;;;;;;;20.72;56.66;94927.34;4963528;28;20027;-77
2023/08/01 05:27:56;;;;;;;12.23;4.50;;;;;;;20.79;56.33;94900.56;4976968;28;20035;-78
2023/08/01 05:30:21;;;;;;;8.05;4.05;;;;;;;21.01;56.31;94930.78;4944526;28;20042;-77
2023/08/01 05:32:47;;;;;;;10.90;6.05;;;;;;;20.98;56.19;94912.63;4971542;28;20504;-77
2023/08/01 05:35:12;;;;;;;11.77;5.25;;;;;;;21.07;56.24;94932.09;4970583;28;20115;-77
2023/08/01 05:37:38;;;;;;;10.27;5.50;;;;;;;21.22;56.03;94939.44;4971574;28;20039;-78
2023/08/01 05:40:04;;;;;;;8.43;4.95;;;;;;;21.16;55.91;94938.94;4985505;28;20116;-78
2023/08/01 05:42:30;;;;;;;12.30;5.28;;;;;;;21.08;56.05;94930.97;4971037;28;20038;-78
2023/08/01 05:44:55;;;;;;;7.90;4.90;;;;;;;21.01;56.00;94920.78;4956488;28;20133;-77
2023/08/01 05:47:22;;;;;;;8.77;4.68;;;;;;;21.26;55.60;94936.84;4940207;28;20573;-77
2023/08/01 05:49:48;;;;;;;14.05;5.22;;;;;;;21.13;55.33;94898.38;4935113;28;20075;-77
2023/08/01 05:52:13;;;;;;;11.27;5.72;;;;;;;21.39;55.21;94932.94;4953744;28;20055;-77
2023/08/01 05:54:39;;;;;;;11.23;4.90;;;;;;;21.31;55.17;94909.63;4971636;28;20603;-77
2023/08/01 05:57:05;;;;;;;8.15;4.82;;;;;;;21.52;54.77;94932.50;4971387;28;20416;-77
2023/08/01 05:59:30;;;;;;;9.05;5.45;;;;;;;21.27;54.72;94887.97;4953449;28;20413;-78
2023/08/01 06:01:56;;;;;;;10.52;5.05;;;;;;;21.43;54.83;94928.44;4953685;28;20034;-78
2023/08/01 06:04:22;;;;;;;9.80;5.22;;;;;;;21.20;54.63;94887.00;4953432;28;20038;-78
2023/08/01 06:06:47;;;;;;;7.47;4.53;;;;;;;21.50;54.41;94926.69;4964233;28;20039;-78
2023/08/01 06:09:12;;;;;;;11.77;4.88;;;;;;;21.28;54.17;94894.16;4964498;28;20424;-78
2023/08/01 06:11:38;;;;;;;8.45;3.80;;;;;;;21.42;53.47;94913.38;4953437;28;20461;-77
2023/08/01 06:14:03;;;;;;;7.32;4.10;;;;;;;21.40;53.33;94900.22;4971325;28;20035;-78
2023/08/01 06:16:29;;;;;;;16.33;4.57;;;;;;;21.09;54.28;94870.53;4985867;28;20039;-78
2023/08/01 06:18:54;;;;;;;14.98;4.88;;;;;;;21.48;54.13;94931.66;4971390;28;20050;-78
2023/08/01 06:21:20;;;;;;;10.88;4.65;;;;;;;21.60;53.80;94916.50;4958600;28;20043;-78
2023/08/01 06:23:45;;;;;;;13.77;5.43;;;;;;;21.74;54.11;94922.25;4956435;28;20100;-78
2023/08/01 06:26:10;;;;;;;10.80;5.80;;;;;;;21.51;55.06;94892.41;4969498;28;20053;-77
2023/08/01 06:28:36;;;;;;;15.70;5.40;;;;;;;21.45;54.75;94885.69;4985763;28;20094;-78
2023/08/01 06:31:02;;;;;;;12.90;5.43;;;;;;;21.54;54.73;94880.91;4955829;28;20081;-78
2023/08/01 06:33:28;;;;;;;22.38;10.90;;;;;;;21.68;54.72;94899.34;4968681;28;20108;-78
2023/08/01 06:35:53;;;;;;;11.52;4.85;;;;;;;21.60;54.95;94886.81;4953351;28;20456;-78
2023/08/01 06:38:19;;;;;;;21.45;12.15;;;;;;;21.75;54.36;94891.41;4970947;28;20102;-78
2023/08/01 06:40:44;;;;;;;10.30;5.10;;;;;;;21.68;54.32;94873.13;4969653;28;20051;-78
2023/08/01 06:43:10;;;;;;;11.68;4.70;;;;;;;21.94;53.68;94913.84;4954111;28;20035;-78
2023/08/01 06:45:35;;;;;;;21.77;4.78;;;;;;;21.56;53.71;94857.84;4954572;28;20432;-80
2023/08/01 06:48:01;;;;;;;10.30;4.10;;;;;;;21.89;53.08;94908.69;4988463;28;20035;-80
2023/08/01 06:50:26;;;;;;;10.65;4.47;;;;;;;22.05;53.08;94914.09;4976043;28;20111;-80
2023/08/01 06:52:51;;;;;;;11.27;4.72;;;;;;;21.87;53.49;94892.09;4981736;28;20120;-80
2023/08/01 06:55:18;;;;;;;13.18;4.72;;;;;;;21.83;53.47;94883.13;4985344;28;20093;-81
2023/08/01 06:57:44;;;;;;;18.02;4.47;;;;;;;21.93;52.94;94904.19;4981901;28;20055;-80
2023/08/01 07:00:11;;;;;;;9.20;4.38;;;;;;;21.84;52.64;94892.00;4960839;28;20041;-81
2023/08/01 07:02:36;;;;;;;12.50;4.57;;;;;;;22.01;52.52;94915.94;4963047;28;20026;-80
2023/08/01 07:05:02;;;;;;;9.68;5.22;;;;;;;21.84;52.33;94903.59;4971516;28;20034;-80
2023/08/01 07:07:27;;;;;;;17.08;4.82;;;;;;;21.89;52.69;94897.16;4985500;28;20082;-80
2023/08/01 07:09:52;;;;;;;11.60;4.65;;;;;;;22.13;52.41;94913.13;4998321;28;20016;-81
2023/08/01 07:12:18;;;;;;;24.20;6.10;;;;;;;22.10;52.04;94894.16;5042243;23;20064;-82
2023/08/01 07:14:43;;;;;;;12.07;4.53;;;;;;;22.13;51.89;94891.53;5050879;28;20136;-82
2023/08/01 07:17:09;;;;;;;8.27;4.72;;;;;;;22.09;52.03;94889.88;5041639;28;20760;-82
2023/08/01 07:19:34;;;;;;;14.85;4.45;;;;;;;21.70;52.30;94824.22;5033454;28;20039;-82
2023/08/01 07:22:00;;;;;;;17.70;4.68;;;;;;;21.91;52.36;94860.53;5047448;28;20033;-82
2023/08/01 07:24:25;;;;;;;12.13;4.10;;;;;;;21.93;52.23;94855.59;5049515;28;20040;-82
2023/08/01 07:26:51;;;;;;;14.38;4.70;;;;;;;22.30;52.25;94893.03;5048949;28;20068;-82
2023/08/01 07:29:16;;;;;;;11.15;4.97;;;;;;;22.12;51.52;94868.38;5049325;28;20041;-83
2023/08/01 07:31:42;;;;;;;10.65;4.43;;;;;;;22.21;51.49;94852.72;5049198;28;20028;-83
2023/08/01 07:34:08;;;;;;;9.07;3.40;;;;;;;22.26;51.25;94844.34;5041643;28;20064;-82
2023/08/01 07:36:33;;;;;;;8.93;4.18;;;;;;;22.18;51.43;94871.56;5048548;28;20498;-82
2023/08/01 07:38:59;;;;;;;10.27;3.85;;;;;;;22.24;51.65;94859.34;5034130;28;20101;-82
2023/08/01 07:41:24;;;;;;;9.07;3.63;;;;;;;22.35;51.47;94856.88;5048490;28;20065;-82
2023/08/01 07:43:50;;;;;;;9.23;4.55;;;;;;;21.71;51.68;94777.97;5048652;28;20032;-82
2023/08/01 07:46:15;;;;;;;16.13;4.82;;;;;;;22.46;51.53;94872.16;5048153;28;20114;-82
2023/08/01 07:48:40;;;;;;;9.27;4.35;;;;;;;22.43;50.75;94861.28;5049386;28;20136;-82
2023/08/01 07:51:07;;;;;;;11.48;4.57;;;;;;;22.63;50.97;94890.63;5033159;28;20087;-82
2023/08/01 07:53:34;;;;;;;8.43;4.22;;;;;;;22.58;50.71;94874.69;5044564;28;20025;-81
2023/08/01 07:56:01;;;;;;;9.95;4.20;;;;;;;22.55;50.89;94880.03;5061117;28;20041;-81
2023/08/01 07:58:27;;;;;;;10.30;4.38;;;;;;;22.68;50.79;94857.91;5067257;28;20017;-81
2023/08/01 08:00:53;;;;;;;8.27;4.50;;;;;;;22.80;50.37;94859.72;5063159;28;20029;-81
2023/08/01 08:03:19;;;;;;;12.63;4.65;;;;;;;23.06;50.47;94876.00;5059947;28;20032;-82
2023/08/01 08:05:44;;;;;;;11.63;4.40;;;;;;;23.03;50.31;94857.03;5037470;28;20033;-83
2023/08/01 08:08:10;;;;;;;11.80;4.32;;;;;;;23.01;49.89;94841.16;5048731;28;20086;-82
2023/08/01 08:10:35;;;;;;;8.60;4.60;;;;;;;23.35;49.63;94873.78;5047627;28;20037;-82
2023/08/01 08:13:01;;;;;;;19.40;4.18;;;;;;;23.18;49.27;94847.22;5045881;28;20040;-82
2023/08/01 08:15:27;;;;;;;8.27;4.00;;;;;;;23.37;48.99;94853.34;5037852;28;20483;-82
2023/08/01 08:17:52;;;;;;;17.00;4.20;;;;;;;23.53;48.53;94865.97;5040916;28;20028;-82
2023/08/01 08:20:18;;;;;;;11.65;3.90;;;;;;;23.58;48.54;94857.53;5039491;28;20041;-83
2023/08/01 08:22:43;;;;;;;13.98;5.53;;;;;;;23.59;48.97;94846.38;5042334;28;20373;-82
2023/08/01 08:25:08;;;;;;;14.60;4.38;;;;;;;23.61;48.47;94852.19;5036032;28;20127;-82
2023/08/01 08:27:34;;;;;;;18.98;4.10;;;;;;;23.45;48.44;94833.38;5045445;28;20173;-82
2023/08/01 08:30:00;;;;;;;6.13;3.38;;;;;;;23.68;48.30;94855.00;5053747;28;20028;-82
2023/08/01 08:32:25;;;;;;;11.80;4.25;;;;;;;23.81;47.89;94852.88;5049862;28;20036;-82
2023/08/01 08:34:50;;;;;;;12.75;4.32;;;;;;;23.24;47.58;94753.81;5044763;28;20422;-82
2023/08/01 08:37:16;;;;;;;12.63;4.38;;;;;;;23.51;47.61;94778.94;5060978;28;20108;-82
2023/08/01 08:39:41;;;;;;;11.30;4.05;;;;;;;23.99;47.49;94845.78;5035508;28;20119;-83
2023/08/01 08:42:07;;;;;;;5.82;3.58;;;;;;;23.95;46.65;94836.06;5043461;28;20033;-83
2023/08/01 08:44:39;;;;;;;12.65;3.95;;;;;;;23.91;46.96;94836.00;5054783;28;20040;-82
2023/08/01 08:47:05;;;;;;;10.25;3.88;;;;;;;23.83;47.02;94816.16;5055491;28;20071;-82
2023/08/01 08:49:31;;;;;;;8.90;3.72;;;;;;;23.81;46.75;94812.25;5072849;28;20043;-82
2023/08/01 08:51:58;;;;;;;9.50;3.55;;;;;;;23.88;46.54;94806.19;5055487;28;20044;-83
2023/08/01 08:54:24;;;;;;;10.43;4.00;;;;;;;24.07;46.52;94806.81;5041538;28;20107;-83
2023/08/01 08:56:50;;;;;;;6.78;3.92;;;;;;;24.09;46.27;94801.81;5067234;28;20085;-82
2023/08/01 08:59:16;;;;;;;11.70;4.15;;;;;;;24.08;46.21;94794.03;5055680;28;20037;-82
2023/08/01 09:01:41;;;;;;;9.77;4.15;;;;;;;24.36;45.69;94816.09;5044738;28;20041;-82
2023/08/01 09:04:08;;;;;;;11.70;3.42;;;;;;;24.15;45.58;94792.22;5055343;28;20121;-82
2023/08/01 09:06:40;;;;;;;10.10;4.22;;;;;;;24.10;45.70;94779.00;5068461;28;20032;-82
2023/08/01 09:09:13;;;;;;;13.40;3.65;;;;;;;24.25;45.07;94811.72;5071343;28;20044;-82
2023/08/01 09:11:49;;;;;;;7.78;3.80;;;;;;;24.25;45.09;94796.22;5049487;23;20058;-78
2023/08/01 09:14:15;;;;;;;11.68;3.90;;;;;;;24.42;44.88;94797.56;4969760;28;20046;-78
2023/08/01 09:16:42;;;;;;;9.73;4.40;;;;;;;24.27;44.99;94772.22;4983532;28;20034;-78
2023/08/01 09:19:08;;;;;;;8.10;3.67;;;;;;;24.34;44.61;94771.53;4976047;28;20031;-78
2023/08/01 09:21:35;;;;;;;13.68;3.90;;;;;;;24.63;44.86;94800.53;4988705;28;20057;-78
2023/08/01 09:24:14;;;;;;;8.90;3.60;;;;;;;24.74;44.11;94798.69;4983269;28;20050;-79
2023/08/01 09:26:40;;;;;;;8.70;3.95;;;;;;;24.61;43.98;94783.84;4980826;28;20031;-78
2023/08/01 09:29:07;;;;;;;9.82;3.72;;;;;;;24.71;44.16;94776.97;4976207;28;20069;-78
2023/08/01 09:31:34;;;;;;;8.05;3.90;;;;;;;24.70;43.78;94791.69;4977069;28;20030;-78
2023/08/01 09:34:02;;;;;;;8.77;3.83;;;;;;;24.80;44.08;94791.75;4979140;28;20178;-78
2023/08/01 09:36:27;;;;;;;10.80;3.80;;;;;;;24.98;44.02;94790.03;4985433;28;20060;-78
2023/08/01 09:38:59;;;;;;;10.07;4.22;;;;;;;24.89;43.89;94758.91;4977398;28;20039;-78
2023/08/01 09:41:25;;;;;;;7.72;3.97;;;;;;;25.14;43.87;94776.22;4980227;28;20034;-78
2023/08/01 09:43:50;;;;;;;18.83;4.82;;;;;;;25.23;43.62;94770.47;4987663;28;20034;-78
2023/08/01 09:46:16;;;;;;;13.10;4.05;;;;;;;25.39;43.38;94773.69;4986264;28;20119;-78
2023/08/01 09:48:41;;;;;;;8.90;4.30;;;;;;;25.36;43.14;94748.06;4988928;28;20031;-78
2023/08/01 09:51:15;;;;;;;8.60;3.30;;;;;;;25.47;42.26;94764.44;4990053;28;20031;-79
2023/08/01 09:53:49;;;;;;;16.50;4.40;;;;;;;25.56;42.48;94778.44;4969823;28;20125;-78
2023/08/01 09:56:18;;;;;;;11.18;3.90;;;;;;;25.82;41.74;94742.16;4983448;28;20493;-79
2023/08/01 09:58:45;;;;;;;11.27;3.90;;;;;;;26.51;41.32;94758.38;4988688;28;20023;-78
2023/08/01 10:01:16;;;;;;;8.50;3.85;;;;;;;27.38;39.30;94753.41;4988100;28;20049;-78
2023/08/01 10:03:47;;;;;;;5.82;4.03;;;;;;;28.48;37.65;94750.38;4989989;28;20038;-79
2023/08/01 10:06:19;;;;;;;28.20;4.78;;;;;;;29.15;36.23;94717.19;4977777;28;20046;-78
2023/08/01 10:08:45;;;;;;;9.60;3.97;;;;;;;29.90;34.40;94747.31;4984379;28;20130;-80
2023/08/01 10:11:14;;;;;;;6.90;3.60;;;;;;;30.66;33.10;94720.63;4981127;28;20061;-79
2023/08/01 10:13:43;;;;;;;8.07;4.13;;;;;;;31.26;32.01;94733.41;4982290;28;20046;-78
2023/08/01 10:16:10;;;;;;;11.20;3.80;;;;;;;31.41;31.86;94740.19;4975567;28;20038;-82
2023/08/01 10:18:37;;;;;;;21.05;3.90;;;;;;;31.06;31.96;94721.59;5004838;28;20036;-81
2023/08/01 10:21:05;;;;;;;6.82;3.30;;;;;;;30.41;32.16;94632.63;5093538;22;20053;-86
2023/08/01 10:23:32;;;;;;;14.80;4.07;;;;;;;30.86;32.34;94726.19;5020689;28;20527;-87
2023/08/01 10:26:00;;;;;;;8.40;3.85;;;;;;;30.59;32.47;94664.00;5021401;28;20037;-88
2023/08/01 10:28:33;;;;;;;5.63;3.30;;;;;;;31.57;31.18;94714.88;5022399;28;20092;-88
2023/08/01 10:31:08;;;;;;;12.73;3.60;;;;;;;31.82;31.01;94715.19;5037731;28;20124;-88
2023/08/01 10:33:34;;;;;;;10.50;5.07;;;;;;;31.85;30.18;94660.72;5026189;28;20043;-87
2023/08/01 10:36:00;;;;;;;7.18;3.35;;;;;;;32.31;29.70;94684.47;5028800;28;20100;-88
2023/08/01 10:38:25;;;;;;;8.60;3.95;;;;;;;31.86;30.06;94663.03;5017924;28;20365;-87
2023/08/01 10:40:51;;;;;;;11.40;3.45;;;;;;;31.93;29.46;94608.03;5027820;28;20101;-87
2023/08/01 10:43:23;;;;;;;10.48;3.40;;;;;;;32.33;29.80;94706.78;5026231;28;20059;-88
2023/08/01 10:46:00;;;;;;;7.07;3.25;;;;;;;31.86;30.22;94671.25;5019089;28;20099;-88
2023/08/01 10:48:25;;;;;;;9.07;3.80;;;;;;;31.60;30.57;94664.69;5015355;28;20037;-88
2023/08/01 10:50:56;;;;;;;19.13;4.85;;;;;;;32.15;30.05;94699.69;5020304;28;20045;-87
2023/08/01 10:53:21;;;;;;;;;;;;;;;32.43;30.49;94689.28;5033028;28;20028;-87
2023/08/01 10:55:48;;;;;;;751.88;58.58;;;;;;;32.00;31.93;94656.47;5034817;28;20381;-87
2023/08/01 10:58:14;;;;;;;7.60;3.53;;;;;;;32.70;28.83;94645.97;5029218;28;20033;-88
2023/08/01 11:00:42;;;;;;;8.73;3.75;;;;;;;33.29;28.25;94688.88;5025220;28;20049;-88
2023/08/01 11:03:07;;;;;;;5.30;3.80;;;;;;;33.10;28.11;94670.50;5025222;28;20041;-88
2023/08/01 11:05:33;;;;;;;11.05;3.65;;;;;;;33.17;28.13;94629.91;5017407;28;20052;-87
2023/08/01 11:08:00;;;;;;;8.50;3.03;;;;;;;33.76;27.14;94670.00;5009688;28;20033;-86
2023/08/01 11:10:28;;;;;;;5.47;3.25;;;;;;;33.34;27.42;94605.91;5025678;28;20582;-87
2023/08/01 11:12:55;;;;;;;14.65;3.55;;;;;;;33.43;27.49;94591.53;5032558;28;20036;-87
2023/08/01 11:15:21;;;;;;;11.93;3.70;;;;;;;33.96;27.67;94658.81;5062028;28;20038;-87
2023/08/01 11:17:54;;;;;;;367.38;24.27;;;;;;;33.00;27.69;94534.97;5023725;28;20026;-88
2023/08/01 11:20:24;;;;;;;198.90;13.90;;;;;;;33.94;26.82;94596.00;5040100;28;20296;-87
2023/08/01 11:23:01;;;;;;;128.93;10.07;;;;;;;34.79;25.80;94650.47;5061386;28;20048;-87
2023/08/01 11:25:42;;;;;;;1367.45;110.95;;;;;;;35.02;29.52;94650.09;5041734;28;20480;-87